Time;durP1;ratioP1;P1;durP2;ratioP2;P2;SDS_P1;SDS_P2;PMS_P1;PMS_P2;Temp;Humidity;BMP_temperature;BMP_pressure;BME280_temperature;BME280_humidity;BME280_pressure;Samples;Min_cycle;Max_cycle;Signal;HPM_P1;HPM_P2
2022/09/14 00:02:04;;;;;;;6.30;2.25;;;19.10;91.10;;;;;;5095331;28;20059;-69
2022/09/14 00:04:30;;;;;;;3.85;2.40;;;19.20;91.10;;;;;;5075155;28;20107;-69
2022/09/14 00:06:55;;;;;;;4.88;2.13;;;19.10;91.10;;;;;;5074150;28;20032;-70
2022/09/14 00:09:23;;;;;;;4.78;2.08;;;19.10;91.10;;;;;;5093659;28;20017;-69
2022/09/14 00:11:49;;;;;;;3.33;1.80;;;19.20;91.20;;;;;;5093341;28;20031;-69
2022/09/14 00:14:16;;;;;;;5.78;2.15;;;19.20;91.20;;;;;;5095023;28;20028;-70
2022/09/14 00:16:42;;;;;;;2.97;1.63;;;19.10;91.20;;;;;;5106631;28;20016;-68
2022/09/14 00:19:18;;;;;;;4.25;2.10;;;19.20;91.20;;;;;;5093047;28;20153;-69
2022/09/14 00:21:44;;;;;;;5.35;2.20;;;19.20;91.20;;;;;;5093103;28;20107;-69
2022/09/14 00:24:11;;;;;;;5.03;2.13;;;19.10;91.20;;;;;;5092594;28;20095;-70
2022/09/14 00:26:37;;;;;;;3.35;1.67;;;19.20;91.20;;;;;;5091557;28;20480;-69
2022/09/14 00:29:04;;;;;;;3.25;2.20;;;19.10;91.20;;;;;;5092300;28;20074;-69
2022/09/14 00:31:31;;;;;;;3.15;2.00;;;19.10;91.20;;;;;;5082120;28;20020;-69
2022/09/14 00:33:57;;;;;;;3.78;1.60;;;19.10;91.20;;;;;;5092693;28;20036;-69
2022/09/14 00:36:25;;;;;;;3.13;2.05;;;19.10;91.20;;;;;;5071882;28;20047;-69
2022/09/14 00:38:52;;;;;;;6.25;2.17;;;19.10;91.20;;;;;;5091992;28;20121;-69
2022/09/14 00:41:21;;;;;;;5.75;2.33;;;19.10;91.20;;;;;;5092352;28;20496;-69
2022/09/14 00:43:51;;;;;;;3.47;2.13;;;19.10;91.20;;;;;;5073171;28;20024;-69
2022/09/14 00:46:17;;;;;;;5.75;1.85;;;19.10;91.30;;;;;;5081783;28;20016;-71
2022/09/14 00:48:42;;;;;;;2.83;1.80;;;19.10;91.30;;;;;;5092388;28;20263;-69
2022/09/14 00:51:08;;;;;;;10.35;2.10;;;19.10;91.30;;;;;;5074023;28;20055;-69
2022/09/14 00:53:33;;;;;;;6.68;2.45;;;19.10;91.30;;;;;;5092125;28;20077;-69
2022/09/14 00:55:59;;;;;;;7.95;2.15;;;19.10;91.30;;;;;;5091734;28;20085;-69
2022/09/14 00:58:25;;;;;;;4.55;2.33;;;19.10;91.30;;;;;;5092014;28;20015;-69
2022/09/14 01:00:51;;;;;;;4.28;1.83;;;19.10;91.30;;;;;;5099738;28;20123;-69
2022/09/14 01:03:16;;;;;;;3.38;2.25;;;19.10;91.30;;;;;;5091773;28;20107;-71
2022/09/14 01:06:36;;;;;;;6.10;2.25;;;19.10;91.30;;;;;;5092136;28;20469;-69
2022/09/14 01:09:24;;;;;;;4.43;1.95;;;19.10;91.40;;;;;;5074246;28;20040;-69
2022/09/14 01:12:05;;;;;;;8.18;2.53;;;19.10;91.40;;;;;;5094411;28;20528;-69
2022/09/14 01:14:37;;;;;;;6.05;2.22;;;19.10;91.40;;;;;;5092298;28;20541;-69
2022/09/14 01:17:03;;;;;;;7.50;1.90;;;19.10;91.40;;;;;;5094971;28;20024;-69
2022/09/14 01:19:48;;;;;;;3.28;2.22;;;19.10;91.40;;;;;;5091772;28;20027;-69
2022/09/14 01:22:20;;;;;;;5.13;2.10;;;19.10;91.40;;;;;;5073060;28;20130;-69
2022/09/14 01:24:53;;;;;;;2.58;2.10;;;19.10;91.40;;;;;;5091637;28;20481;-68
2022/09/14 01:27:30;;;;;;;3.45;2.40;;;19.10;91.40;;;;;;5090521;28;20497;-69
2022/09/14 01:30:02;;;;;;;4.45;2.35;;;19.10;91.50;;;;;;5097833;28;20156;-69
2022/09/14 01:32:48;;;;;;;5.20;1.92;;;19.10;91.50;;;;;;5091639;28;20448;-69
2022/09/14 01:35:22;;;;;;;2.33;1.80;;;19.10;91.50;;;;;;5091392;28;20428;-69
2022/09/14 01:38:05;;;;;;;4.40;1.83;;;19.10;91.50;;;;;;5071179;28;20103;-69
2022/09/14 01:40:44;;;;;;;5.45;1.90;;;19.10;91.50;;;;;;5090881;28;20066;-69
2022/09/14 01:43:28;;;;;;;5.43;2.42;;;19.10;91.50;;;;;;5107484;28;20324;-69
2022/09/14 01:46:16;;;;;;;3.35;2.15;;;19.10;91.50;;;;;;5082181;28;20027;-69
2022/09/14 01:48:45;;;;;;;4.32;2.08;;;19.10;91.50;;;;;;5073380;28;20020;-69
2022/09/14 01:51:19;;;;;;;4.65;2.00;;;19.10;91.50;;;;;;5090411;28;20055;-69
2022/09/14 01:54:13;;;;;;;6.68;2.38;;;19.10;91.50;;;;;;5073140;28;20587;-69
2022/09/14 01:56:50;;;;;;;4.13;2.60;;;19.10;91.50;;;;;;5084596;28;20024;-69
2022/09/14 01:59:23;;;;;;;6.18;2.60;;;19.10;91.60;;;;;;5089771;28;20053;-70
2022/09/14 02:01:55;;;;;;;4.63;2.30;;;19.10;91.60;;;;;;5081194;28;20024;-69
2022/09/14 02:04:35;;;;;;;4.75;2.22;;;19.10;91.60;;;;;;5090505;28;20465;-69
2022/09/14 02:07:01;;;;;;;3.20;2.00;;;19.10;91.60;;;;;;5067644;28;20721;-69
2022/09/14 02:09:27;;;;;;;4.03;2.08;;;19.10;91.60;;;;;;5090844;28;20480;-69
2022/09/14 02:11:54;;;;;;;4.45;2.50;;;19.10;91.60;;;;;;5090893;28;20085;-69
2022/09/14 02:14:20;;;;;;;3.22;2.10;;;19.10;91.60;;;;;;5091638;28;20233;-70
2022/09/14 02:16:46;;;;;;;7.65;2.78;;;19.10;91.60;;;;;;5092116;28;20128;-69
2022/09/14 02:19:13;;;;;;;4.97;2.80;;;19.10;91.60;;;;;;5108695;28;20095;-69
2022/09/14 02:21:39;;;;;;;7.90;3.58;;;19.10;91.60;;;;;;5108271;28;20078;-69
2022/09/14 02:24:06;;;;;;;4.68;2.95;;;19.10;91.70;;;;;;5072488;28;20518;-69
2022/09/14 02:26:31;;;;;;;6.30;2.47;;;19.00;91.60;;;;;;5070383;28;20063;-70
2022/09/14 02:28:57;;;;;;;4.40;3.30;;;19.00;91.70;;;;;;5090954;28;20074;-69
2022/09/14 02:31:47;;;;;;;5.45;3.55;;;19.10;91.70;;;;;;5099149;28;20118;-69
2022/09/14 02:34:45;;;;;;;4.93;3.30;;;19.10;91.70;;;;;;5104363;28;20024;-69
2022/09/14 02:37:32;;;;;;;6.63;3.70;;;19.00;91.70;;;;;;5099959;28;20511;-69
2022/09/14 02:40:09;;;;;;;6.28;3.30;;;19.00;91.70;;;;;;5092903;28;20028;-69
2022/09/14 02:42:40;;;;;;;8.48;3.58;;;19.10;91.80;;;;;;5089855;28;20028;-70
2022/09/14 02:45:24;;;;;;;8.80;3.58;;;19.10;91.80;;;;;;5071112;28;20027;-69
2022/09/14 02:48:12;;;;;;;6.57;3.17;;;19.10;91.80;;;;;;5090658;28;20016;-69
2022/09/14 02:50:58;;;;;;;5.40;3.22;;;19.10;91.80;;;;;;5090412;28;20108;-69
2022/09/14 02:53:35;;;;;;;3.47;2.45;;;19.00;91.80;;;;;;5072396;28;20035;-69
2022/09/14 02:56:07;;;;;;;5.10;2.83;;;19.10;91.80;;;;;;5089741;28;20027;-69
2022/09/14 02:58:35;;;;;;;3.60;2.45;;;19.10;91.80;;;;;;5090296;28;20024;-69
2022/09/14 03:01:02;;;;;;;3.63;2.30;;;19.10;91.90;;;;;;5076462;28;20035;-69
2022/09/14 03:03:27;;;;;;;4.68;2.42;;;19.10;91.90;;;;;;5073905;28;20059;-69
2022/09/14 03:05:55;;;;;;;5.55;2.38;;;19.00;91.90;;;;;;5089748;28;20051;-70
2022/09/14 03:08:24;;;;;;;5.60;2.42;;;19.00;91.80;;;;;;5089801;28;20528;-70
2022/09/14 03:10:50;;;;;;;9.32;3.17;;;19.00;91.80;;;;;;5078237;28;20519;-70
2022/09/14 03:13:16;;;;;;;11.77;2.95;;;19.00;91.90;;;;;;5076527;28;20024;-69
2022/09/14 03:15:41;;;;;;;5.55;2.75;;;19.00;91.90;;;;;;5091456;28;20106;-70
2022/09/14 03:18:08;;;;;;;8.55;3.13;;;19.10;91.90;;;;;;5076196;28;20438;-70
2022/09/14 03:20:34;;;;;;;5.57;3.35;;;19.10;91.90;;;;;;5090059;28;20028;-70
2022/09/14 03:23:01;;;;;;;5.47;3.72;;;19.10;91.90;;;;;;5089767;28;20024;-69
2022/09/14 03:25:27;;;;;;;5.20;3.58;;;19.10;92.00;;;;;;5089825;28;20043;-70
2022/09/14 03:27:57;;;;;;;8.07;3.55;;;19.00;91.90;;;;;;5070853;28;20032;-69
2022/09/14 03:30:23;;;;;;;7.45;3.33;;;19.10;92.00;;;;;;5088216;28;20036;-70
2022/09/14 03:32:49;;;;;;;12.35;3.05;;;19.00;92.00;;;;;;5079665;28;20111;-69
2022/09/14 03:35:15;;;;;;;9.60;3.80;;;19.10;92.00;;;;;;5071648;28;20051;-69
2022/09/14 03:37:42;;;;;;;5.38;3.33;;;19.00;92.00;;;;;;5068941;28;20049;-70
2022/09/14 03:40:10;;;;;;;5.78;3.47;;;19.00;92.00;;;;;;5089585;28;20043;-69
2022/09/14 03:42:36;;;;;;;4.68;3.00;;;19.00;92.00;;;;;;5088883;28;20072;-70
2022/09/14 03:45:02;;;;;;;5.78;3.47;;;19.10;92.00;;;;;;5071549;28;20573;-69
2022/09/14 03:47:28;;;;;;;9.05;3.60;;;19.00;92.00;;;;;;5077679;28;20024;-70
2022/09/14 03:49:54;;;;;;;5.93;3.30;;;19.00;92.00;;;;;;5089552;28;20473;-69
2022/09/14 03:52:19;;;;;;;5.35;3.30;;;19.00;92.00;;;;;;5089400;28;20024;-70
2022/09/14 03:54:45;;;;;;;5.72;3.05;;;19.00;92.00;;;;;;5071312;28;20035;-70
2022/09/14 03:57:10;;;;;;;4.80;3.60;;;19.00;92.00;;;;;;5088145;28;20030;-70
2022/09/14 03:59:36;;;;;;;10.40;3.92;;;19.00;92.10;;;;;;5089334;28;20553;-70
2022/09/14 04:02:02;;;;;;;4.60;3.15;;;19.00;92.10;;;;;;5096132;28;20032;-69
2022/09/14 04:04:28;;;;;;;8.65;3.58;;;19.00;92.10;;;;;;5088989;28;20377;-69
2022/09/14 04:06:54;;;;;;;6.70;3.40;;;19.00;92.10;;;;;;5070247;28;20032;-69
2022/09/14 04:09:20;;;;;;;9.48;3.67;;;19.00;92.10;;;;;;5088502;28;20270;-70
2022/09/14 04:11:46;;;;;;;9.13;3.55;;;19.00;92.10;;;;;;5088208;28;20066;-70
2022/09/14 04:14:12;;;;;;;6.78;2.97;;;19.00;92.10;;;;;;5090536;28;20028;-69
2022/09/14 04:16:38;;;;;;;9.25;3.65;;;19.00;92.10;;;;;;5099433;28;20422;-70
2022/09/14 04:19:05;;;;;;;5.63;3.05;;;19.00;92.20;;;;;;5093008;28;20436;-69
2022/09/14 04:21:31;;;;;;;5.10;2.75;;;19.00;92.20;;;;;;5074690;28;20111;-69
2022/09/14 04:23:57;;;;;;;3.30;3.00;;;19.00;92.20;;;;;;5092994;28;20111;-69
2022/09/14 04:26:27;;;;;;;6.50;3.30;;;19.00;92.20;;;;;;5073611;28;20359;-70
2022/09/14 04:35:05;;;;;;;6.35;3.00;;;19.00;92.20;;;;;;5054550;28;20032;-70
2022/09/14 04:37:31;;;;;;;9.68;3.85;;;19.00;92.20;;;;;;5042338;28;20347;-69
2022/09/14 04:39:57;;;;;;;13.77;3.88;;;19.00;92.30;;;;;;5058301;28;20373;-69
2022/09/14 04:42:23;;;;;;;9.98;3.97;;;19.00;92.30;;;;;;5057511;28;20025;-70
2022/09/14 04:44:48;;;;;;;5.68;3.90;;;19.00;92.30;;;;;;5057313;28;20029;-69
2022/09/14 04:47:14;;;;;;;6.07;3.33;;;19.00;92.30;;;;;;5053244;28;20037;-69
2022/09/14 04:49:40;;;;;;;7.07;3.90;;;19.00;92.30;;;;;;5044088;28;20389;-70
2022/09/14 04:52:05;;;;;;;6.72;3.85;;;19.00;92.30;;;;;;5053465;28;20169;-70
2022/09/14 04:54:31;;;;;;;9.10;4.30;;;19.00;92.30;;;;;;5044476;28;20086;-71
2022/09/14 04:56:56;;;;;;;7.43;3.67;;;19.00;92.30;;;;;;5040663;28;20043;-71
2022/09/14 04:59:22;;;;;;;8.35;3.92;;;19.00;92.30;;;;;;5055566;28;20107;-71
2022/09/14 05:01:48;;;;;;;12.93;4.18;;;19.00;92.30;;;;;;5063493;28;20055;-71
2022/09/14 05:04:13;;;;;;;5.90;3.80;;;19.00;92.30;;;;;;5098874;28;20016;-71
2022/09/14 05:06:41;;;;;;;6.50;4.22;;;19.00;92.40;;;;;;5072937;28;20020;-71
2022/09/14 05:09:14;;;;;;;14.45;3.45;;;19.00;92.40;;;;;;5092020;28;20020;-71
2022/09/14 05:11:40;;;;;;;10.82;4.03;;;19.00;92.40;;;;;;5091829;28;20092;-71
2022/09/14 05:14:06;;;;;;;7.07;3.22;;;19.00;92.50;;;;;;5092253;28;20016;-71
2022/09/14 05:16:36;;;;;;;8.50;3.83;;;19.00;92.50;;;;;;5089995;28;20024;-71
2022/09/14 05:19:06;;;;;;;;;;;19.00;92.50;;;;;;5100715;28;20484;-70
2022/09/14 05:21:33;;;;;;;7.18;3.50;;;19.00;92.50;;;;;;5091905;28;20056;-71
2022/09/14 05:24:03;;;;;;;4.57;2.95;;;19.00;92.50;;;;;;5073619;28;20122;-70
2022/09/14 05:26:30;;;;;;;8.25;3.00;;;19.00;92.50;;;;;;5090637;28;20244;-71
2022/09/14 05:28:57;;;;;;;10.50;2.90;;;19.00;92.50;;;;;;5091517;28;20332;-71
2022/09/14 05:31:24;;;;;;;4.25;2.78;;;19.00;92.50;;;;;;5090620;28;20044;-71
2022/09/14 05:33:50;;;;;;;6.35;3.08;;;19.00;92.50;;;;;;5090420;28;20027;-71
2022/09/14 05:36:17;;;;;;;6.30;3.22;;;19.00;92.60;;;;;;5071834;28;20066;-71
2022/09/14 05:38:42;;;;;;;4.45;2.88;;;19.00;92.50;;;;;;5091040;28;20437;-71
2022/09/14 05:41:11;;;;;;;11.88;3.20;;;19.00;92.60;;;;;;5073291;28;20318;-71
2022/09/14 05:43:38;;;;;;;7.80;3.42;;;19.00;92.90;;;;;;5091416;28;20028;-71
2022/09/14 05:46:06;;;;;;;8.43;3.55;;;19.00;92.60;;;;;;5090365;28;20031;-71
2022/09/14 05:48:36;;;;;;;6.22;3.53;;;19.00;92.60;;;;;;5098907;28;20079;-71
2022/09/14 05:51:06;;;;;;;5.00;3.15;;;19.00;92.60;;;;;;5091323;28;20024;-71
2022/09/14 05:53:32;;;;;;;4.65;3.20;;;19.00;92.60;;;;;;5091193;28;20434;-71
2022/09/14 05:56:05;;;;;;;10.15;2.97;;;19.00;92.60;;;;;;5091134;28;20373;-71
2022/09/14 05:58:31;;;;;;;15.30;3.50;;;19.00;92.60;;;;;;5091985;28;20026;-71
2022/09/14 06:00:57;;;;;;;7.03;3.25;;;19.00;92.60;;;;;;5082720;28;20028;-71
2022/09/14 06:03:24;;;;;;;5.05;3.05;;;19.00;92.60;;;;;;5091427;28;20637;-71
2022/09/14 06:05:49;;;;;;;7.30;3.50;;;19.00;93.00;;;;;;5091012;28;20038;-71
2022/09/14 06:08:15;;;;;;;5.05;3.50;;;19.00;92.70;;;;;;5072354;28;20028;-71
2022/09/14 06:10:40;;;;;;;6.50;3.47;;;19.00;92.70;;;;;;5091033;28;20020;-71
2022/09/14 06:13:06;;;;;;;7.78;3.40;;;19.00;92.70;;;;;;5091499;28;20039;-71
2022/09/14 06:15:33;;;;;;;5.07;3.22;;;19.00;92.70;;;;;;5090774;28;20099;-71
2022/09/14 06:17:59;;;;;;;4.93;3.25;;;19.10;92.70;;;;;;5090659;28;20027;-71
2022/09/14 06:20:24;;;;;;;7.15;3.33;;;19.00;92.70;;;;;;5090514;28;20028;-72
2022/09/14 06:22:50;;;;;;;4.22;2.80;;;19.00;92.70;;;;;;5101130;28;20032;-71
2022/09/14 06:25:15;;;;;;;5.28;3.10;;;19.00;92.70;;;;;;5086264;28;20011;-72
2022/09/14 06:27:41;;;;;;;5.65;3.72;;;19.00;92.70;;;;;;5101558;28;20046;-71
2022/09/14 06:30:07;;;;;;;10.73;3.80;;;19.10;92.80;;;;;;5099724;28;20488;-71
2022/09/14 06:32:33;;;;;;;4.93;3.50;;;19.00;92.70;;;;;;5084603;28;20111;-71
2022/09/14 06:35:00;;;;;;;11.50;3.30;;;19.00;92.70;;;;;;5102283;28;20060;-71
2022/09/14 06:37:25;;;;;;;7.03;3.22;;;19.10;92.70;;;;;;5099823;28;20020;-71
2022/09/14 06:39:51;;;;;;;7.65;3.30;;;19.10;92.80;;;;;;5086343;28;20445;-72
2022/09/14 06:42:16;;;;;;;6.28;3.28;;;19.10;92.80;;;;;;5098461;28;20103;-71
2022/09/14 06:44:42;;;;;;;4.63;2.90;;;19.10;92.70;;;;;;5098306;28;20024;-71
2022/09/14 06:47:08;;;;;;;6.32;3.45;;;19.10;92.70;;;;;;5100220;28;20019;-71
2022/09/14 06:49:33;;;;;;;6.18;3.35;;;19.10;92.70;;;;;;5086623;28;20468;-71
2022/09/14 06:51:59;;;;;;;3.83;2.58;;;19.10;92.70;;;;;;5099349;28;20118;-71
2022/09/14 06:54:25;;;;;;;3.92;3.05;;;19.10;92.80;;;;;;5098603;28;20085;-71
2022/09/14 06:56:51;;;;;;;5.68;2.58;;;19.10;92.80;;;;;;5096276;28;20030;-71
2022/09/14 06:59:17;;;;;;;3.88;2.50;;;19.10;92.80;;;;;;5102013;28;20090;-71
2022/09/14 07:01:50;;;;;;;6.72;3.42;;;19.10;92.80;;;;;;5101837;28;20054;-71
2022/09/14 07:04:16;;;;;;;11.38;3.13;;;19.10;92.80;;;;;;5109349;28;20024;-71
2022/09/14 07:06:47;;;;;;;7.20;2.58;;;19.10;92.80;;;;;;5100887;28;20018;-71
2022/09/14 07:09:14;;;;;;;6.63;2.53;;;19.20;92.80;;;;;;5089417;28;20020;-71
2022/09/14 07:11:40;;;;;;;7.05;2.95;;;19.20;92.90;;;;;;5098008;28;20465;-71
2022/09/14 07:14:07;;;;;;;5.93;2.88;;;19.20;92.90;;;;;;5099632;28;20461;-71
2022/09/14 07:16:34;;;;;;;11.48;3.38;;;19.20;92.90;;;;;;5100744;28;20443;-71
2022/09/14 07:19:02;;;;;;;6.00;3.08;;;19.20;92.90;;;;;;5108080;28;20034;-71
2022/09/14 07:21:29;;;;;;;7.00;2.65;;;19.20;93.00;;;;;;5101815;28;20032;-71
2022/09/14 07:23:55;;;;;;;7.10;3.33;;;19.20;93.00;;;;;;5102024;28;20036;-71
2022/09/14 07:26:29;;;;;;;5.15;2.25;;;19.20;93.00;;;;;;5096941;28;20562;-71
2022/09/14 07:29:03;;;;;;;6.22;3.13;;;19.20;93.00;;;;;;5098324;28;20032;-71
2022/09/14 07:31:44;;;;;;;3.53;2.65;;;19.30;93.00;;;;;;5102576;28;20023;-71
2022/09/14 07:34:10;;;;;;;4.22;2.47;;;19.30;93.00;;;;;;5090614;28;20063;-71
2022/09/14 07:36:37;;;;;;;5.45;2.60;;;19.30;93.00;;;;;;5096872;28;20054;-71
2022/09/14 07:39:04;;;;;;;4.78;2.70;;;19.30;93.10;;;;;;5101274;28;20050;-71
2022/09/14 07:41:32;;;;;;;3.80;2.20;;;19.30;93.10;;;;;;5098052;28;20043;-71
2022/09/14 07:44:00;;;;;;;5.07;2.65;;;19.30;93.10;;;;;;5084664;28;20032;-71
2022/09/14 07:46:28;;;;;;;12.23;2.90;;;19.40;93.20;;;;;;5087698;28;20070;-71
2022/09/14 07:48:55;;;;;;;6.22;2.30;;;19.40;93.20;;;;;;5104781;28;20106;-71
2022/09/14 07:51:22;;;;;;;7.35;2.25;;;19.40;93.20;;;;;;5105671;28;20020;-71
2022/09/14 07:53:47;;;;;;;3.47;2.38;;;19.40;93.30;;;;;;5105356;28;20020;-71
2022/09/14 07:56:15;;;;;;;3.30;2.28;;;19.40;93.30;;;;;;5102668;28;20026;-71
2022/09/14 07:58:41;;;;;;;3.28;2.25;;;19.40;93.40;;;;;;5101694;28;20100;-71
2022/09/14 08:01:10;;;;;;;4.00;2.20;;;19.50;93.40;;;;;;5102432;28;20058;-71
2022/09/14 08:03:38;;;;;;;6.63;2.58;;;19.50;93.40;;;;;;5109347;28;20062;-71
2022/09/14 08:06:07;;;;;;;6.13;2.30;;;19.50;93.50;;;;;;5104685;28;20047;-71
2022/09/14 08:08:35;;;;;;;4.53;2.45;;;19.50;93.50;;;;;;5101535;28;20055;-71
2022/09/14 08:11:06;;;;;;;3.28;2.45;;;19.60;93.60;;;;;;5101797;28;20388;-71
2022/09/14 08:13:33;;;;;;;8.73;2.45;;;19.60;93.60;;;;;;5105530;28;20024;-71
2022/09/14 08:15:59;;;;;;;4.95;2.25;;;19.60;93.60;;;;;;5094262;28;20054;-71
2022/09/14 08:18:26;;;;;;;3.42;2.70;;;19.60;93.60;;;;;;5108159;28;20106;-71
2022/09/14 08:20:52;;;;;;;7.80;3.17;;;19.60;93.60;;;;;;5113397;28;20020;-71
2022/09/14 08:23:17;;;;;;;4.65;2.63;;;19.70;93.60;;;;;;5102902;28;20028;-73
2022/09/14 08:25:43;;;;;;;10.60;3.25;;;19.60;93.60;;;;;;5098251;28;20088;-71
2022/09/14 08:28:09;;;;;;;8.10;2.63;;;19.70;93.70;;;;;;5104480;28;20126;-71
2022/09/14 08:30:34;;;;;;;6.95;3.10;;;19.70;93.70;;;;;;5094518;28;20026;-71
2022/09/14 08:33:00;;;;;;;6.53;2.90;;;19.70;93.70;;;;;;5093686;28;20468;-71
2022/09/14 08:35:25;;;;;;;3.97;1.90;;;19.70;93.60;;;;;;5110646;28;20030;-71
2022/09/14 08:37:52;;;;;;;6.05;2.85;;;19.80;93.70;;;;;;5096774;28;20031;-71
2022/09/14 08:40:18;;;;;;;4.75;3.28;;;19.80;93.60;;;;;;5114630;28;20022;-71
2022/09/14 08:42:45;;;;;;;3.38;2.30;;;19.80;93.60;;;;;;5115628;28;20032;-71
2022/09/14 08:45:15;;;;;;;2.88;2.20;;;19.90;93.60;;;;;;5115298;28;20026;-71
2022/09/14 08:47:42;;;;;;;3.35;2.35;;;19.90;93.60;;;;;;5096495;28;20126;-71
2022/09/14 08:50:17;;;;;;;5.13;2.38;;;19.90;93.50;;;;;;5114450;28;20074;-71
2022/09/14 08:52:45;;;;;;;4.57;2.80;;;20.00;93.60;;;;;;5097017;28;20028;-71
2022/09/14 08:55:33;;;;;;;3.15;2.50;;;20.00;93.50;;;;;;5115108;28;20023;-71
2022/09/14 08:58:08;;;;;;;7.88;2.45;;;20.00;93.50;;;;;;5096854;28;20583;-71
2022/09/14 09:01:07;;;;;;;8.73;2.55;;;20.10;93.50;;;;;;5096940;28;20075;-71
2022/09/14 09:04:06;;;;;;;4.47;2.43;;;20.10;93.50;;;;;;5115731;28;20039;-71
2022/09/14 09:06:40;;;;;;;6.53;2.60;;;20.10;93.40;;;;;;5114623;28;20370;-71
2022/09/14 09:09:15;;;;;;;8.02;2.90;;;20.10;93.40;;;;;;5115157;28;20023;-71
2022/09/14 09:11:47;;;;;;;3.58;2.40;;;20.20;93.40;;;;;;5094909;28;20020;-71
2022/09/14 09:14:32;;;;;;;9.68;2.90;;;20.10;93.40;;;;;;5112385;28;20023;-71
2022/09/14 09:17:01;;;;;;;10.38;2.20;;;20.20;93.70;;;;;;5114768;28;20380;-71
2022/09/14 09:20:06;;;;;;;5.90;2.42;;;20.20;93.30;;;;;;5096530;28;20020;-71
2022/09/14 09:22:41;;;;;;;9.48;2.58;;;20.20;93.30;;;;;;5103970;28;20024;-71
2022/09/14 09:25:25;;;;;;;3.75;2.25;;;20.20;93.30;;;;;;5104180;28;20542;-71
2022/09/14 09:27:56;;;;;;;8.35;2.97;;;20.20;93.30;;;;;;5091042;28;20032;-71
2022/09/14 09:30:22;;;;;;;3.88;2.47;;;20.20;93.30;;;;;;5093580;28;20023;-72
2022/09/14 09:32:48;;;;;;;4.97;2.08;;;20.20;93.30;;;;;;5107397;28;20020;-71
2022/09/14 09:35:18;;;;;;;8.82;2.80;;;20.20;93.30;;;;;;5118518;22;20044;-67
2022/09/14 09:37:44;;;;;;;3.40;2.10;;;20.20;93.30;;;;;;5077779;28;20483;-67
2022/09/14 09:40:34;;;;;;;6.72;2.55;;;20.20;93.30;;;;;;5071568;28;20024;-67
2022/09/14 09:43:08;;;;;;;;;;;20.20;93.30;;;;;;5059010;28;20409;-67
2022/09/14 09:45:49;;;;;;;4.15;2.45;;;20.20;93.30;;;;;;5053212;28;19905;-67
2022/09/14 09:48:18;;;;;;;6.53;3.05;;;20.20;93.40;;;;;;5068694;28;20048;-67
2022/09/14 09:51:04;;;;;;;6.82;2.75;;;20.20;93.40;;;;;;5077439;28;20028;-67
2022/09/14 09:53:32;;;;;;;4.30;2.33;;;20.20;93.40;;;;;;5088478;28;20032;-67
2022/09/14 09:55:57;;;;;;;6.95;2.60;;;20.20;93.40;;;;;;5096415;28;20037;-67
2022/09/14 09:58:37;;;;;;;6.18;2.67;;;20.20;93.40;;;;;;5102310;28;20128;-67
2022/09/14 10:01:18;;;;;;;4.10;2.63;;;20.20;93.40;;;;;;5099634;28;20029;-67
2022/09/14 10:04:05;;;;;;;2.78;2.40;;;20.30;93.40;;;;;;5102529;28;20020;-67
2022/09/14 10:06:57;;;;;;;8.35;2.65;;;20.20;93.40;;;;;;5091861;28;20070;-67
2022/09/14 10:09:28;;;;;;;8.27;2.88;;;20.20;93.40;;;;;;5072437;28;20051;-67
2022/09/14 10:12:02;;;;;;;12.48;3.05;;;20.20;93.50;;;;;;5087206;28;20020;-67
2022/09/14 10:14:31;;;;;;;5.57;3.17;;;20.20;93.50;;;;;;5090301;28;20036;-67
2022/09/14 10:17:14;;;;;;;4.85;2.40;;;20.20;93.50;;;;;;5089917;28;20404;-68
2022/09/14 10:19:45;;;;;;;8.98;2.97;;;20.20;93.50;;;;;;5090767;28;20042;-67
2022/09/14 10:22:34;;;;;;;5.78;3.00;;;20.20;93.50;;;;;;5086329;28;20399;-67
2022/09/14 10:25:21;;;;;;;5.38;2.75;;;20.30;93.50;;;;;;5074872;28;20388;-68
2022/09/14 10:27:48;;;;;;;4.20;2.60;;;20.20;93.50;;;;;;5088312;28;20023;-68
2022/09/14 10:30:17;;;;;;;3.47;2.53;;;20.20;93.50;;;;;;5090331;28;20497;-67
2022/09/14 10:33:04;;;;;;;4.07;2.50;;;20.30;93.40;;;;;;5090336;28;20051;-68
2022/09/14 10:35:44;;;;;;;6.40;2.90;;;20.20;93.40;;;;;;5088178;28;20105;-67
2022/09/14 10:38:27;;;;;;;4.60;2.60;;;20.30;93.50;;;;;;5089408;28;20034;-67
2022/09/14 10:41:14;;;;;;;4.10;2.90;;;20.30;93.50;;;;;;5072313;28;20028;-67
2022/09/14 10:44:01;;;;;;;9.75;2.65;;;20.20;93.40;;;;;;5090186;28;20050;-68
2022/09/14 10:46:46;;;;;;;9.70;2.80;;;20.30;93.50;;;;;;5075858;28;20035;-67
2022/09/14 10:49:42;;;;;;;3.53;2.97;;;20.20;93.50;;;;;;5070820;28;20031;-67
2022/09/14 10:52:25;;;;;;;7.75;2.78;;;20.30;93.50;;;;;;5085458;28;20385;-67
2022/09/14 10:54:57;;;;;;;8.52;2.95;;;20.20;93.50;;;;;;5096540;28;20069;-67
2022/09/14 10:57:43;;;;;;;7.95;3.15;;;20.30;93.60;;;;;;5096271;28;20028;-67
2022/09/14 11:00:18;;;;;;;6.45;2.90;;;20.20;93.60;;;;;;5077481;28;20077;-67
2022/09/14 11:02:55;;;;;;;7.47;3.33;;;20.30;93.60;;;;;;5088436;28;20067;-68
2022/09/14 11:05:21;;;;;;;5.95;2.78;;;20.30;93.60;;;;;;5088877;28;20031;-68
2022/09/14 11:08:35;;;;;;;4.82;2.92;;;20.30;93.70;;;;;;5089054;28;20095;-67
2022/09/14 11:11:37;;;;;;;10.20;3.35;;;20.30;93.70;;;;;;5019425;28;20041;-67
2022/09/14 11:14:05;;;;;;;5.03;2.97;;;20.30;93.70;;;;;;5027042;28;20029;-67
2022/09/14 11:16:39;;;;;;;9.00;3.72;;;20.30;93.80;;;;;;5026022;28;20044;-67
2022/09/14 11:19:31;;;;;;;9.20;3.35;;;20.30;93.80;;;;;;5027567;28;20030;-68
2022/09/14 11:22:18;;;;;;;7.47;3.22;;;20.30;93.80;;;;;;5015368;28;20087;-67
2022/09/14 11:25:00;;;;;;;5.95;2.92;;;20.30;93.80;;;;;;5033324;28;20106;-67
2022/09/14 11:27:39;;;;;;;8.23;2.90;;;20.30;93.90;;;;;;5033637;28;20107;-67
2022/09/14 11:30:14;;;;;;;6.20;3.50;;;20.30;93.90;;;;;;5033609;28;20120;-67
2022/09/14 11:32:54;;;;;;;6.40;2.90;;;20.30;93.90;;;;;;5034017;28;20272;-68
2022/09/14 11:35:29;;;;;;;4.18;2.70;;;20.30;93.90;;;;;;5032784;28;20037;-69
2022/09/14 11:38:04;;;;;;;5.22;2.78;;;20.30;93.90;;;;;;5032957;28;20254;-67
2022/09/14 11:40:54;;;;;;;8.10;2.78;;;20.30;94.00;;;;;;5033468;28;20065;-67
2022/09/14 11:43:36;;;;;;;5.05;2.83;;;20.30;94.00;;;;;;5033604;28;20026;-68
2022/09/14 11:46:17;;;;;;;4.95;2.67;;;20.30;94.10;;;;;;5024339;28;20025;-67
2022/09/14 11:49:00;;;;;;;10.48;2.72;;;20.30;94.00;;;;;;5084399;28;20584;-67
2022/09/14 11:51:37;;;;;;;7.50;2.72;;;20.30;94.10;;;;;;5100168;28;20024;-67
2022/09/14 11:54:17;;;;;;;6.88;2.97;;;20.30;94.10;;;;;;5088425;28;20027;-67
2022/09/14 11:56:50;;;;;;;7.63;2.57;;;20.30;94.10;;;;;;5112538;28;20020;-67
2022/09/14 11:59:39;;;;;;;5.75;2.72;;;20.30;94.10;;;;;;5086127;28;20262;-67
2022/09/14 12:02:23;;;;;;;4.40;2.78;;;20.30;94.10;;;;;;5067169;28;20115;-67
2022/09/14 12:05:08;;;;;;;6.05;2.72;;;20.30;94.10;;;;;;5096745;28;20012;-67
2022/09/14 12:08:16;;;;;;;6.40;2.72;;;20.40;94.10;;;;;;5098263;28;20024;-67
2022/09/14 12:10:59;;;;;;;3.78;2.83;;;20.30;94.10;;;;;;5069670;28;20492;-67
2022/09/14 12:13:25;;;;;;;4.45;2.60;;;20.30;94.10;;;;;;5097010;28;20038;-67
2022/09/14 12:16:01;;;;;;;3.25;2.60;;;20.30;94.20;;;;;;5096081;28;20557;-68
2022/09/14 12:18:27;;;;;;;5.75;2.88;;;20.30;94.10;;;;;;5084497;28;20019;-67
2022/09/14 12:21:06;;;;;;;4.25;2.70;;;20.40;94.20;;;;;;5104215;28;20024;-67
2022/09/14 12:23:38;;;;;;;7.85;2.35;;;20.30;94.10;;;;;;5104847;28;20027;-67
2022/09/14 12:26:09;;;;;;;6.35;2.50;;;20.30;94.20;;;;;;5106847;28;20480;-67
2022/09/14 12:28:36;;;;;;;4.32;2.95;;;20.30;94.20;;;;;;5086671;28;20023;-67
2022/09/14 12:31:01;;;;;;;10.23;3.00;;;20.30;94.20;;;;;;5104899;28;20036;-67
2022/09/14 12:33:30;;;;;;;5.32;2.75;;;20.30;94.20;;;;;;5080928;28;20453;-66
2022/09/14 12:35:59;;;;;;;4.72;3.15;;;20.30;94.20;;;;;;5064737;28;20493;-67
2022/09/14 12:38:40;;;;;;;7.18;2.70;;;20.30;94.20;;;;;;5076531;28;20043;-68
2022/09/14 12:41:11;;;;;;;10.10;3.25;;;20.30;94.30;;;;;;5079355;28;20030;-67
2022/09/14 12:43:40;;;;;;;2.95;2.45;;;20.30;94.30;;;;;;5086862;28;20016;-67
2022/09/14 12:46:10;;;;;;;10.77;3.15;;;20.30;94.30;;;;;;5081105;28;20032;-67
2022/09/14 12:48:47;;;;;;;15.48;4.18;;;20.30;94.30;;;;;;5098198;28;20524;-67
2022/09/14 12:53:56;;;;;;;;;;;20.30;94.40;;;;;;5083708;28;20036;-67
2022/09/14 12:56:43;;;;;;;16.63;3.67;;;20.30;94.40;;;;;;5091740;28;19918;-67
2022/09/14 12:59:17;;;;;;;5.95;2.17;;;20.30;94.40;;;;;;5084434;28;20032;-67
2022/09/14 13:01:58;;;;;;;6.05;1.83;;;20.30;94.50;;;;;;5092296;28;20028;-67
2022/09/14 13:04:27;;;;;;;3.95;1.90;;;20.30;94.50;;;;;;5085614;28;20032;-67
2022/09/14 13:06:56;;;;;;;3.30;1.70;;;20.30;94.50;;;;;;5090405;28;20027;-67
2022/09/14 13:09:26;;;;;;;1.95;1.65;;;20.30;94.60;;;;;;5092361;28;20032;-67
2022/09/14 13:12:03;;;;;;;4.93;1.60;;;20.30;94.70;;;;;;5081045;28;20054;-68
2022/09/14 13:14:36;;;;;;;1.95;1.30;;;20.20;94.70;;;;;;5089823;28;20028;-67
2022/09/14 13:17:05;;;;;;;3.92;1.75;;;20.30;94.80;;;;;;5068854;28;20037;-67
2022/09/14 13:19:32;;;;;;;2.53;1.40;;;20.20;94.80;;;;;;5088039;28;20020;-67